Time;durP1;ratioP1;P1;durP2;ratioP2;P2;SDS_P1;SDS_P2;PMS_P1;PMS_P2;Temp;Humidity;BMP_temperature;BMP_pressure;BME280_temperature;BME280_humidity;BME280_pressure;Samples;Min_cycle;Max_cycle;Signal;HPM_P1;HPM_P2
2023/05/15 00:00:05;;;;;;;20.52;12.70;;;12.00;99.90;;;;;;5026616;28;20037;-37
2023/05/15 00:02:33;;;;;;;19.00;11.95;;;12.00;99.90;;;;;;5035893;28;20096;-37
2023/05/15 00:04:59;;;;;;;21.23;12.68;;;12.00;99.90;;;;;;5013437;28;20041;-37
2023/05/15 00:07:25;;;;;;;19.50;11.77;;;12.00;99.90;;;;;;5049053;28;20490;-37
2023/05/15 00:09:50;;;;;;;19.35;11.45;;;12.00;99.90;;;;;;5043772;28;20048;-37
2023/05/15 00:12:16;;;;;;;19.25;11.77;;;11.90;99.90;;;;;;5036506;28;20106;-37
2023/05/15 00:14:42;;;;;;;20.25;11.00;;;11.80;99.90;;;;;;5030666;28;20551;-37
2023/05/15 00:17:08;;;;;;;19.35;12.15;;;11.70;99.90;;;;;;5041195;28;20123;-37
2023/05/15 00:19:34;;;;;;;19.73;11.27;;;11.80;99.90;;;;;;5042879;28;20499;-37
2023/05/15 00:22:00;;;;;;;20.48;11.88;;;11.80;99.90;;;;;;5045152;28;20103;-37
2023/05/15 00:24:25;;;;;;;19.40;11.82;;;11.70;99.90;;;;;;5035259;28;20144;-37
2023/05/15 00:26:51;;;;;;;21.38;12.68;;;11.70;99.90;;;;;;5047807;28;20091;-37
2023/05/15 00:29:17;;;;;;;20.45;11.93;;;11.70;99.90;;;;;;5037904;28;20072;-37
2023/05/15 00:31:42;;;;;;;22.42;12.50;;;11.60;99.90;;;;;;5034311;28;20057;-37
2023/05/15 00:34:08;;;;;;;20.48;13.10;;;11.60;99.90;;;;;;5041589;28;20446;-37
2023/05/15 00:36:34;;;;;;;18.20;10.98;;;11.60;99.90;;;;;;5044800;28;20048;-37
2023/05/15 00:39:00;;;;;;;20.13;12.25;;;11.50;99.90;;;;;;5036989;28;20049;-37
2023/05/15 00:41:27;;;;;;;19.90;11.95;;;11.50;99.90;;;;;;5031595;28;20060;-37
2023/05/15 00:43:54;;;;;;;22.08;12.70;;;11.40;99.90;;;;;;5017804;28;20053;-37
2023/05/15 00:46:21;;;;;;;19.85;12.23;;;11.40;99.90;;;;;;5049264;28;20165;-37
2023/05/15 00:48:49;;;;;;;19.88;11.93;;;11.40;99.90;;;;;;5026737;28;20057;-37
2023/05/15 00:51:16;;;;;;;19.70;11.50;;;11.30;99.90;;;;;;5028861;28;20057;-36
2023/05/15 00:53:43;;;;;;;20.58;11.73;;;11.40;99.90;;;;;;5022251;28;20120;-37
2023/05/15 00:56:10;;;;;;;20.23;11.95;;;11.30;99.90;;;;;;5008848;28;20136;-37
2023/05/15 00:58:37;;;;;;;20.73;12.15;;;11.40;99.90;;;;;;5017910;28;20075;-37
2023/05/15 01:01:02;;;;;;;19.35;12.20;;;11.30;99.90;;;;;;5039487;28;20072;-36
2023/05/15 01:03:28;;;;;;;21.48;12.57;;;11.40;99.90;;;;;;5023070;28;20093;-37
2023/05/15 01:05:54;;;;;;;22.52;11.80;;;11.30;99.90;;;;;;5023642;28;20511;-37
2023/05/15 01:08:31;;;;;;;18.52;11.48;;;11.30;99.90;;;;;;5025681;28;20053;-37
2023/05/15 01:10:58;;;;;;;23.48;11.57;;;11.20;99.90;;;;;;5023299;28;20401;-38
2023/05/15 01:13:23;;;;;;;19.08;11.57;;;11.10;99.90;;;;;;5017860;28;20049;-37
2023/05/15 01:15:49;;;;;;;17.10;10.73;;;11.20;99.90;;;;;;5039098;28;20040;-37
2023/05/15 01:18:15;;;;;;;19.98;11.85;;;11.10;99.90;;;;;;5016305;28;20115;-36
2023/05/15 01:21:04;;;;;;;19.73;11.23;;;11.10;99.90;;;;;;5038224;28;20053;-38
2023/05/15 01:23:53;;;;;;;18.65;11.18;;;11.10;99.90;;;;;;5016550;28;20405;-38
2023/05/15 01:27:01;;;;;;;25.35;11.75;;;11.10;99.90;;;;;;5034176;28;20053;-37
2023/05/15 01:29:33;;;;;;;15.95;10.45;;;11.10;99.90;;;;;;5043079;28;20052;-38
2023/05/15 01:32:07;;;;;;;17.95;10.32;;;11.10;99.90;;;;;;5033306;28;20053;-38
2023/05/15 01:35:04;;;;;;;18.42;10.50;;;11.00;99.90;;;;;;5022953;28;20053;-37
2023/05/15 01:37:33;;;;;;;17.83;10.02;;;11.00;99.90;;;;;;5023301;28;20053;-37
2023/05/15 01:40:04;;;;;;;17.25;9.82;;;11.10;99.90;;;;;;5038875;28;20045;-37
2023/05/15 01:42:33;;;;;;;26.35;11.43;;;11.00;99.90;;;;;;5019473;28;20065;-37
2023/05/15 01:45:03;;;;;;;23.65;11.52;;;11.00;99.90;;;;;;5024540;28;20041;-37
2023/05/15 01:47:40;;;;;;;21.27;10.65;;;11.00;99.90;;;;;;5028152;28;20053;-36
2023/05/15 01:50:09;;;;;;;18.33;11.00;;;10.90;99.90;;;;;;5028321;28;20140;-37
2023/05/15 01:52:38;;;;;;;19.73;10.90;;;11.00;99.90;;;;;;5047443;28;20072;-38
2023/05/15 01:55:06;;;;;;;17.92;10.55;;;11.00;99.90;;;;;;5030150;28;20144;-38
2023/05/15 01:57:33;;;;;;;17.90;11.35;;;10.90;99.90;;;;;;5034264;28;20065;-38
2023/05/15 02:00:00;;;;;;;18.08;10.95;;;10.90;99.90;;;;;;5023881;28;20058;-37
2023/05/15 02:02:27;;;;;;;18.92;11.05;;;10.90;99.90;;;;;;5018830;28;21684;-37
2023/05/15 02:04:54;;;;;;;25.60;11.63;;;10.90;99.90;;;;;;5028729;28;20071;-37
2023/05/15 02:07:20;;;;;;;17.75;10.43;;;10.90;99.90;;;;;;5025413;28;20053;-37
2023/05/15 02:09:47;;;;;;;19.02;10.50;;;10.90;99.90;;;;;;5044521;28;20499;-37
2023/05/15 02:12:13;;;;;;;19.60;11.70;;;10.90;99.90;;;;;;5029916;28;20068;-38
2023/05/15 02:14:40;;;;;;;26.08;11.60;;;10.90;99.90;;;;;;5018079;28;20062;-38
2023/05/15 02:17:06;;;;;;;18.00;10.70;;;10.80;99.90;;;;;;5028094;28;20054;-38
2023/05/15 02:19:32;;;;;;;19.90;10.43;;;10.70;99.90;;;;;;5024745;28;20083;-37
2023/05/15 02:21:57;;;;;;;21.65;11.77;;;10.80;99.90;;;;;;5034108;28;20143;-38
2023/05/15 02:24:23;;;;;;;24.80;11.73;;;10.80;99.90;;;;;;5037320;28;20044;-38
2023/05/15 02:27:11;;;;;;;17.15;10.48;;;10.80;99.90;;;;;;5031134;28;20069;-37
2023/05/15 02:30:03;;;;;;;18.02;11.57;;;10.80;99.90;;;;;;5039985;28;20512;-37
2023/05/15 02:33:06;;;;;;;21.27;11.63;;;10.80;99.90;;;;;;5010137;28;20140;-37
2023/05/15 02:35:37;;;;;;;;;;;10.90;99.90;;;;;;5023201;28;20111;-36
2023/05/15 02:38:09;;;;;;;19.02;11.68;;;10.90;99.90;;;;;;5034221;28;19917;-38
2023/05/15 02:40:36;;;;;;;19.10;11.40;;;10.90;99.90;;;;;;5026183;28;20046;-38
2023/05/15 02:43:02;;;;;;;18.58;10.50;;;10.90;99.90;;;;;;5033780;28;20099;-37
2023/05/15 02:45:29;;;;;;;17.50;11.68;;;10.80;99.90;;;;;;5021700;28;20049;-37
2023/05/15 02:47:56;;;;;;;18.10;10.68;;;10.80;99.90;;;;;;5021707;28;20057;-37
2023/05/15 02:50:22;;;;;;;21.35;11.02;;;10.80;99.90;;;;;;5032193;28;20461;-38
2023/05/15 02:52:48;;;;;;;20.88;11.85;;;10.80;99.90;;;;;;5036978;28;20049;-35
2023/05/15 02:55:14;;;;;;;20.20;11.73;;;10.80;99.90;;;;;;5022597;28;20045;-36
2023/05/15 02:57:39;;;;;;;17.98;10.98;;;10.80;99.90;;;;;;5038449;28;20073;-37
2023/05/15 03:00:10;;;;;;;19.00;11.30;;;10.80;99.90;;;;;;5027966;28;20048;-37
2023/05/15 03:02:36;;;;;;;18.98;10.05;;;10.70;99.90;;;;;;5035815;28;20561;-37
2023/05/15 03:05:02;;;;;;;19.85;11.55;;;10.70;99.90;;;;;;5034461;28;20136;-37
2023/05/15 03:07:28;;;;;;;26.73;12.10;;;10.70;99.90;;;;;;5018746;28;20141;-37
2023/05/15 03:09:53;;;;;;;30.83;11.80;;;10.60;99.90;;;;;;5018901;28;20050;-37
2023/05/15 03:12:19;;;;;;;20.58;10.80;;;10.50;99.90;;;;;;5017032;28;20054;-37
2023/05/15 03:14:45;;;;;;;21.58;10.27;;;10.40;99.90;;;;;;5018904;28;20125;-37
2023/05/15 03:17:10;;;;;;;17.10;10.93;;;10.40;99.90;;;;;;5039671;28;20057;-37
2023/05/15 03:19:36;;;;;;;21.65;10.45;;;10.40;99.90;;;;;;5022778;28;20046;-37
2023/05/15 03:22:01;;;;;;;18.83;9.93;;;10.40;99.90;;;;;;5033275;28;20049;-37
2023/05/15 03:24:27;;;;;;;17.60;10.18;;;10.30;99.90;;;;;;5034183;28;20067;-37
2023/05/15 03:26:53;;;;;;;17.92;11.00;;;10.40;99.90;;;;;;5033931;28;20458;-37
2023/05/15 03:29:18;;;;;;;18.20;11.15;;;10.40;99.90;;;;;;5032646;28;20049;-37
2023/05/15 03:31:44;;;;;;;18.55;10.50;;;10.40;99.90;;;;;;5031562;28;20059;-39
2023/05/15 03:34:10;;;;;;;17.15;9.60;;;10.40;99.90;;;;;;5024931;28;20351;-36
2023/05/15 03:36:35;;;;;;;18.83;10.90;;;10.40;99.90;;;;;;5043721;28;20045;-36
2023/05/15 03:39:01;;;;;;;16.63;9.30;;;10.40;99.90;;;;;;5034767;28;20064;-38
2023/05/15 03:41:27;;;;;;;17.52;9.63;;;10.40;99.90;;;;;;5033491;28;20496;-38
2023/05/15 03:43:52;;;;;;;14.43;9.20;;;10.50;99.90;;;;;;5018050;28;20083;-38
2023/05/15 03:46:18;;;;;;;17.38;10.63;;;10.50;99.90;;;;;;5021628;28;20067;-37
2023/05/15 03:48:44;;;;;;;16.17;8.98;;;10.50;99.90;;;;;;5033664;28;20107;-37
2023/05/15 03:51:09;;;;;;;15.52;9.25;;;10.50;99.90;;;;;;5043055;28;20052;-37
2023/05/15 03:53:35;;;;;;;17.27;9.85;;;10.50;99.90;;;;;;5036662;28;20571;-38
2023/05/15 03:56:02;;;;;;;17.10;9.48;;;10.50;99.90;;;;;;5025660;28;20522;-38
2023/05/15 03:58:27;;;;;;;16.33;9.38;;;10.50;99.90;;;;;;5033109;28;20053;-37
2023/05/15 04:00:53;;;;;;;16.98;9.70;;;10.50;99.90;;;;;;5028157;28;20063;-37
2023/05/15 04:03:19;;;;;;;15.30;9.20;;;10.60;99.90;;;;;;5019947;28;20050;-37
2023/05/15 04:05:48;;;;;;;14.57;8.48;;;10.60;99.90;;;;;;5011493;28;20469;-37
2023/05/15 04:08:14;;;;;;;16.08;9.35;;;10.60;99.90;;;;;;5023559;28;20483;-37
2023/05/15 04:10:40;;;;;;;16.30;9.82;;;10.60;99.90;;;;;;5038425;28;20096;-37
2023/05/15 04:13:06;;;;;;;18.17;10.30;;;10.60;99.90;;;;;;5033730;28;20056;-37
2023/05/15 04:15:31;;;;;;;15.23;8.55;;;10.60;99.90;;;;;;5028932;28;20447;-36
2023/05/15 04:17:57;;;;;;;16.42;9.85;;;10.50;99.90;;;;;;5019251;28;20266;-37
2023/05/15 04:20:24;;;;;;;16.55;10.02;;;10.50;99.90;;;;;;5026534;28;20517;-38
2023/05/15 04:22:50;;;;;;;19.83;10.35;;;10.60;99.90;;;;;;5015098;28;20057;-37
2023/05/15 04:25:16;;;;;;;14.02;9.02;;;10.60;99.90;;;;;;5025776;28;20499;-38
2023/05/15 04:27:43;;;;;;;17.05;9.95;;;10.60;99.90;;;;;;5015336;28;20072;-37
2023/05/15 04:30:10;;;;;;;19.50;9.52;;;10.60;99.90;;;;;;5025594;28;20049;-37
2023/05/15 04:32:38;;;;;;;16.23;10.07;;;10.60;99.90;;;;;;5017485;28;20385;-36
2023/05/15 04:35:06;;;;;;;14.45;8.82;;;10.60;99.90;;;;;;5022279;28;20057;-37
2023/05/15 04:37:31;;;;;;;16.30;9.23;;;10.60;99.90;;;;;;5024445;28;20083;-36
2023/05/15 04:39:57;;;;;;;18.48;9.00;;;10.60;99.90;;;;;;5033617;28;20526;-38
2023/05/15 04:42:23;;;;;;;17.70;9.77;;;10.60;99.90;;;;;;5042079;28;20049;-37
2023/05/15 04:44:48;;;;;;;13.57;8.48;;;10.60;99.90;;;;;;5031967;28;20136;-38
2023/05/15 04:47:14;;;;;;;19.73;11.23;;;10.60;99.90;;;;;;5039473;28;20084;-38
2023/05/15 04:49:41;;;;;;;13.35;8.95;;;10.60;99.90;;;;;;5034709;28;20098;-37
2023/05/15 04:52:07;;;;;;;14.27;8.77;;;10.70;99.90;;;;;;5053997;28;20488;-38
2023/05/15 04:54:32;;;;;;;14.18;8.48;;;10.70;99.90;;;;;;5025346;28;20115;-37
2023/05/15 04:56:58;;;;;;;14.25;8.40;;;10.70;99.90;;;;;;5032341;28;20061;-37
2023/05/15 04:59:24;;;;;;;13.00;7.82;;;10.80;99.90;;;;;;5025221;28;20060;-37
2023/05/15 05:01:50;;;;;;;12.40;7.78;;;10.70;99.90;;;;;;5026422;28;20046;-38
2023/05/15 05:04:18;;;;;;;14.95;7.78;;;10.80;99.90;;;;;;5023550;28;20484;-38
2023/05/15 05:06:47;;;;;;;14.38;8.18;;;10.80;99.90;;;;;;5033066;28;20053;-38
2023/05/15 05:09:13;;;;;;;17.50;7.80;;;10.90;99.90;;;;;;5021278;28;20772;-38
2023/05/15 05:11:42;;;;;;;14.65;8.77;;;10.80;99.90;;;;;;5032434;28;20400;-37
2023/05/15 05:14:09;;;;;;;13.10;7.72;;;10.80;99.90;;;;;;5035919;28;20146;-37
2023/05/15 05:16:35;;;;;;;13.13;8.25;;;10.90;99.90;;;;;;5031343;28;20495;-36
2023/05/15 05:19:01;;;;;;;16.58;8.52;;;10.90;99.90;;;;;;5034941;28;21113;-36
2023/05/15 05:21:26;;;;;;;14.23;9.00;;;11.00;99.90;;;;;;5020135;28;20042;-38
2023/05/15 05:23:52;;;;;;;14.40;8.73;;;11.00;99.90;;;;;;5034950;28;20453;-38
2023/05/15 05:26:17;;;;;;;14.07;8.13;;;11.00;99.90;;;;;;5036646;28;20052;-38
2023/05/15 05:28:43;;;;;;;15.50;8.32;;;11.10;99.90;;;;;;5019841;28;20053;-37
2023/05/15 05:31:09;;;;;;;14.23;7.82;;;11.10;99.90;;;;;;5030866;28;20057;-37
2023/05/15 05:33:35;;;;;;;13.48;7.88;;;11.10;99.90;;;;;;5029986;28;20041;-37
2023/05/15 05:36:01;;;;;;;15.82;7.75;;;11.10;99.90;;;;;;5018655;28;20048;-37
2023/05/15 05:38:26;;;;;;;16.17;8.15;;;11.20;99.90;;;;;;5020038;28;20065;-38
2023/05/15 05:40:52;;;;;;;17.63;10.43;;;11.20;99.90;;;;;;5041671;28;20040;-37
2023/05/15 05:43:19;;;;;;;18.25;8.60;;;11.20;99.90;;;;;;5021752;28;20483;-38
2023/05/15 05:45:46;;;;;;;12.75;8.00;;;11.20;99.90;;;;;;5015943;28;20065;-38
2023/05/15 05:48:12;;;;;;;13.27;8.18;;;11.20;99.90;;;;;;5025752;28;20392;-37
2023/05/15 05:50:38;;;;;;;14.80;8.75;;;11.30;99.90;;;;;;5016716;28;20068;-38
2023/05/15 05:53:04;;;;;;;14.07;8.05;;;11.40;99.90;;;;;;5015860;28;20393;-42
2023/05/15 05:55:29;;;;;;;12.48;7.85;;;11.50;99.90;;;;;;5018419;28;20100;-37
2023/05/15 05:57:55;;;;;;;14.27;8.40;;;11.50;99.90;;;;;;5022926;28;20404;-38
2023/05/15 06:00:21;;;;;;;15.05;8.38;;;11.60;99.90;;;;;;5031103;28;20162;-37
2023/05/15 06:02:47;;;;;;;14.90;8.27;;;11.70;99.90;;;;;;5029443;28;20126;-38
2023/05/15 06:05:13;;;;;;;14.40;8.52;;;11.70;99.90;;;;;;5031235;28;20064;-38
2023/05/15 06:07:39;;;;;;;13.32;8.20;;;11.70;99.90;;;;;;5037830;28;20060;-38
2023/05/15 06:10:06;;;;;;;15.57;8.32;;;11.80;99.90;;;;;;5039478;28;20060;-37
2023/05/15 06:12:32;;;;;;;12.10;7.90;;;11.90;99.90;;;;;;5016857;28;20145;-38
2023/05/15 06:14:57;;;;;;;16.55;8.52;;;11.90;99.90;;;;;;5027122;28;20164;-37
2023/05/15 06:17:23;;;;;;;12.57;8.10;;;11.90;99.90;;;;;;5035002;28;20088;-38
2023/05/15 06:19:48;;;;;;;15.50;8.57;;;12.00;99.90;;;;;;5020683;28;20061;-37
2023/05/15 06:22:14;;;;;;;15.32;7.78;;;12.00;99.90;;;;;;5020124;28;20107;-38
2023/05/15 06:24:41;;;;;;;14.55;8.60;;;12.10;99.90;;;;;;5011201;28;20107;-37
2023/05/15 06:27:06;;;;;;;13.60;8.55;;;12.20;99.90;;;;;;5025081;28;20077;-38
2023/05/15 06:29:32;;;;;;;14.25;8.57;;;12.30;99.90;;;;;;5023505;28;20084;-38
2023/05/15 06:31:57;;;;;;;16.23;9.10;;;12.40;99.90;;;;;;5026703;28;20049;-37
2023/05/15 06:34:23;;;;;;;18.05;9.70;;;12.40;99.90;;;;;;5033873;28;20391;-38
2023/05/15 06:36:49;;;;;;;12.73;7.82;;;12.50;99.90;;;;;;5018348;28;20411;-38
2023/05/15 06:39:15;;;;;;;12.88;7.65;;;12.50;99.90;;;;;;5012885;28;20041;-35
2023/05/15 06:41:40;;;;;;;11.77;7.32;;;12.60;99.90;;;;;;5032125;28;20053;-35
2023/05/15 06:44:06;;;;;;;17.60;9.35;;;12.70;99.90;;;;;;5038605;28;20053;-35
2023/05/15 06:46:31;;;;;;;13.95;7.32;;;12.80;99.90;;;;;;5032138;28;20459;-34
2023/05/15 06:48:57;;;;;;;15.85;7.93;;;12.90;99.90;;;;;;5031564;28;20150;-34
2023/05/15 06:51:23;;;;;;;13.07;8.45;;;12.90;99.90;;;;;;5028173;28;20049;-34
2023/05/15 06:53:48;;;;;;;12.18;7.75;;;13.00;99.90;;;;;;5018859;28;20049;-35
2023/05/15 06:56:14;;;;;;;16.90;8.70;;;13.00;99.90;;;;;;5027358;28;20111;-34
2023/05/15 06:58:40;;;;;;;15.05;8.15;;;13.00;99.90;;;;;;5003144;28;20077;-35
2023/05/15 07:01:07;;;;;;;15.95;9.15;;;13.10;99.90;;;;;;5021602;28;20049;-35
2023/05/15 07:03:33;;;;;;;14.80;8.80;;;13.10;99.90;;;;;;5034399;28;20130;-35
2023/05/15 07:05:58;;;;;;;12.10;7.95;;;13.10;99.90;;;;;;5007753;28;20145;-35
2023/05/15 07:08:24;;;;;;;12.70;8.07;;;13.10;99.90;;;;;;5037780;28;20049;-35
2023/05/15 07:10:50;;;;;;;11.48;7.45;;;13.20;99.90;;;;;;5037564;28;20411;-35
2023/05/15 07:13:19;;;;;;;13.23;8.18;;;13.30;99.90;;;;;;5018486;28;20507;-35
2023/05/15 07:15:46;;;;;;;15.57;8.73;;;13.30;99.90;;;;;;5022788;28;20096;-35
2023/05/15 07:18:12;;;;;;;11.55;7.85;;;13.40;99.90;;;;;;5035179;28;20179;-35
2023/05/15 07:20:38;;;;;;;14.07;8.45;;;13.40;99.90;;;;;;5036214;28;20049;-37
2023/05/15 07:23:04;;;;;;;15.55;8.48;;;13.30;99.90;;;;;;5023308;28;20049;-37
2023/05/15 07:25:30;;;;;;;15.18;8.07;;;13.40;99.90;;;;;;5020431;28;21807;-37
2023/05/15 07:27:56;;;;;;;13.73;7.30;;;13.50;99.90;;;;;;5035617;28;20125;-36
2023/05/15 07:30:21;;;;;;;12.13;7.97;;;13.50;99.90;;;;;;5022453;28;20042;-36
2023/05/15 07:32:47;;;;;;;15.13;8.13;;;13.60;99.90;;;;;;5020818;28;20054;-36
2023/05/15 07:35:13;;;;;;;12.45;8.05;;;13.70;99.90;;;;;;5030412;28;20060;-37
2023/05/15 07:37:39;;;;;;;12.82;8.20;;;13.70;99.90;;;;;;5032716;28;20095;-37
2023/05/15 07:40:06;;;;;;;15.70;7.97;;;13.70;99.90;;;;;;5032312;28;20091;-37
2023/05/15 07:42:32;;;;;;;12.15;7.30;;;13.70;99.90;;;;;;5027946;28;20136;-36
2023/05/15 07:44:57;;;;;;;13.30;7.82;;;13.80;99.90;;;;;;5017190;28;20447;-36
2023/05/15 07:47:23;;;;;;;12.18;7.90;;;13.90;99.90;;;;;;5040249;28;20064;-36
2023/05/15 07:49:49;;;;;;;15.05;9.27;;;14.00;99.90;;;;;;5042677;28;20049;-36
2023/05/15 07:52:14;;;;;;;13.38;8.05;;;14.20;99.90;;;;;;5026867;28;20439;-36
2023/05/15 07:54:41;;;;;;;12.23;8.15;;;14.40;99.90;;;;;;5032277;28;20053;-36
2023/05/15 07:57:09;;;;;;;12.00;8.10;;;14.40;99.90;;;;;;5019569;28;20465;-36
2023/05/15 07:59:35;;;;;;;12.50;7.47;;;14.40;99.90;;;;;;5008870;28;20053;-36
2023/05/15 08:02:01;;;;;;;10.35;7.10;;;14.40;99.90;;;;;;5010056;28;20068;-36
2023/05/15 08:04:27;;;;;;;14.77;9.13;;;14.50;99.90;;;;;;5021150;28;20159;-36
2023/05/15 08:06:52;;;;;;;15.38;8.32;;;14.50;99.90;;;;;;5030141;28;20056;-36
2023/05/15 08:09:18;;;;;;;12.35;7.50;;;14.50;99.90;;;;;;5034984;28;20069;-36
2023/05/15 08:11:44;;;;;;;13.10;8.75;;;14.40;99.90;;;;;;5041230;28;20057;-36
2023/05/15 08:14:09;;;;;;;12.75;7.03;;;14.50;99.90;;;;;;5034742;28;20045;-36
2023/05/15 08:16:35;;;;;;;11.40;7.00;;;14.60;99.90;;;;;;5018476;28;20060;-36
2023/05/15 08:19:03;;;;;;;9.45;6.60;;;14.70;99.90;;;;;;5022676;28;20079;-36
2023/05/15 08:21:30;;;;;;;9.45;6.90;;;14.80;99.90;;;;;;5032662;28;20486;-36
2023/05/15 08:23:56;;;;;;;9.80;5.82;;;14.90;99.90;;;;;;5035638;28;20057;-36
2023/05/15 08:26:22;;;;;;;10.55;7.10;;;15.10;99.90;;;;;;5032888;28;20080;-36
2023/05/15 08:28:48;;;;;;;11.20;6.50;;;15.20;99.90;;;;;;5036332;28;20054;-36
2023/05/15 08:31:13;;;;;;;11.02;6.45;;;15.30;99.90;;;;;;5019052;28;20163;-36
2023/05/15 08:33:39;;;;;;;11.60;7.13;;;15.40;99.90;;;;;;5029695;28;20556;-36
2023/05/15 08:36:05;;;;;;;10.10;7.13;;;15.40;99.90;;;;;;5043467;28;20773;-36
2023/05/15 08:38:30;;;;;;;14.93;6.97;;;15.40;99.90;;;;;;5037928;28;20627;-36
2023/05/15 08:41:00;;;;;;;10.10;7.32;;;15.40;99.90;;;;;;5026488;28;20045;-36
2023/05/15 08:43:28;;;;;;;9.82;6.32;;;15.50;99.90;;;;;;5036410;28;20056;-36
2023/05/15 08:45:55;;;;;;;10.95;7.45;;;15.60;99.90;;;;;;5031523;28;20526;-37
2023/05/15 08:48:26;;;;;;;9.07;6.28;;;15.70;99.90;;;;;;5027457;28;20187;-36
2023/05/15 08:50:52;;;;;;;10.00;6.43;;;15.80;99.90;;;;;;5018748;28;20790;-36
2023/05/15 08:53:18;;;;;;;10.90;6.53;;;15.90;99.90;;;;;;5040525;28;20052;-36
2023/05/15 08:55:45;;;;;;;9.38;6.10;;;15.90;99.90;;;;;;5042246;28;20048;-36
2023/05/15 08:58:11;;;;;;;10.00;7.00;;;16.10;99.90;;;;;;5031793;28;20511;-36
2023/05/15 09:00:37;;;;;;;12.05;7.90;;;16.10;99.90;;;;;;5027499;28;20491;-36
2023/05/15 09:03:03;;;;;;;10.68;7.00;;;16.10;99.90;;;;;;5027490;28;20049;-36
2023/05/15 09:05:29;;;;;;;11.50;7.80;;;16.20;99.90;;;;;;5031167;28;20049;-36
2023/05/15 09:07:57;;;;;;;12.00;7.28;;;16.30;99.90;;;;;;5033115;28;20068;-37
2023/05/15 09:10:23;;;;;;;12.25;7.60;;;16.30;99.90;;;;;;5038268;28;20408;-36
2023/05/15 09:12:50;;;;;;;10.27;7.25;;;16.30;99.90;;;;;;5027444;28;20053;-36
2023/05/15 09:15:20;;;;;;;9.43;6.55;;;16.40;99.90;;;;;;5027608;28;20080;-36
2023/05/15 09:17:47;;;;;;;10.25;7.35;;;16.40;99.90;;;;;;5025083;28;20506;-36
2023/05/15 09:20:33;;;;;;;11.82;7.57;;;16.50;99.90;;;;;;5031481;28;20548;-36
2023/05/15 09:23:00;;;;;;;11.32;7.63;;;16.50;99.90;;;;;;5024087;28;20498;-36
2023/05/15 09:25:40;;;;;;;13.18;8.00;;;16.50;99.90;;;;;;5017816;28;20076;-36
2023/05/15 09:28:23;;;;;;;14.65;8.88;;;16.60;99.90;;;;;;5038193;28;20053;-36
2023/05/15 09:30:48;;;;;;;;;;;16.60;99.90;;;;;;5023236;28;20118;-36
2023/05/15 09:33:15;;;;;;;13.80;8.52;;;16.60;99.90;;;;;;5031363;28;19917;-36
2023/05/15 09:35:41;;;;;;;15.35;9.25;;;16.60;99.90;;;;;;5028169;28;20446;-36
2023/05/15 09:38:09;;;;;;;13.90;9.32;;;16.50;99.90;;;;;;5022532;28;20053;-36
2023/05/15 09:40:34;;;;;;;16.92;10.20;;;16.40;99.90;;;;;;5024583;28;20058;-35
2023/05/15 09:43:00;;;;;;;14.23;10.18;;;16.30;99.90;;;;;;5028892;28;20057;-35
2023/05/15 09:45:28;;;;;;;14.65;9.88;;;16.40;99.90;;;;;;5034718;28;20049;-35
2023/05/15 09:47:58;;;;;;;14.95;9.30;;;16.40;99.90;;;;;;5008263;28;20111;-35
2023/05/15 09:50:30;;;;;;;12.40;9.40;;;16.40;99.90;;;;;;5032597;28;20076;-35
2023/05/15 09:52:58;;;;;;;16.42;10.48;;;16.50;99.90;;;;;;5036301;28;20075;-35
2023/05/15 09:55:23;;;;;;;15.00;10.73;;;16.40;99.90;;;;;;5023755;28;20084;-35
2023/05/15 09:58:07;;;;;;;15.05;9.25;;;16.40;99.90;;;;;;5034339;28;20045;-35
2023/05/15 10:00:34;;;;;;;13.68;8.77;;;16.50;99.90;;;;;;5014636;28;20057;-34
2023/05/15 10:03:03;;;;;;;12.75;8.88;;;16.70;99.90;;;;;;5031245;28;20100;-34
2023/05/15 10:05:29;;;;;;;12.85;8.50;;;16.90;99.90;;;;;;5040919;28;20051;-34
2023/05/15 10:07:56;;;;;;;13.70;9.70;;;17.10;99.90;;;;;;5032500;28;20053;-34
2023/05/15 10:10:22;;;;;;;15.65;9.70;;;17.20;99.90;;;;;;5019697;28;20859;-34
2023/05/15 10:12:50;;;;;;;15.80;10.73;;;17.30;99.90;;;;;;5040112;28;20138;-34
2023/05/15 10:15:20;;;;;;;14.80;9.65;;;17.30;99.90;;;;;;5032393;28;20438;-34
2023/05/15 10:17:47;;;;;;;12.15;9.00;;;17.40;99.90;;;;;;5038402;28;20160;-34
2023/05/15 10:20:19;;;;;;;15.50;9.13;;;17.60;99.90;;;;;;5037123;28;20135;-34
2023/05/15 10:22:49;;;;;;;13.68;9.13;;;17.70;99.90;;;;;;5037653;28;20060;-34
2023/05/15 10:25:23;;;;;;;13.27;9.60;;;17.80;99.90;;;;;;5032843;28;20415;-34
2023/05/15 10:27:51;;;;;;;15.68;10.27;;;18.00;99.90;;;;;;5032095;28;20048;-34
2023/05/15 10:30:17;;;;;;;14.30;10.18;;;18.00;99.90;;;;;;5030753;28;20079;-34
2023/05/15 10:32:44;;;;;;;14.10;9.77;;;18.10;99.90;;;;;;5037092;28;20144;-34
2023/05/15 10:35:10;;;;;;;13.30;8.95;;;18.00;99.90;;;;;;5031648;28;20132;-34
2023/05/15 10:37:38;;;;;;;13.77;9.40;;;17.80;99.90;;;;;;5033434;28;20048;-34
2023/05/15 10:40:10;;;;;;;14.10;8.75;;;17.70;99.90;;;;;;5037144;28;20053;-34
2023/05/15 10:42:37;;;;;;;15.57;8.60;;;17.70;99.90;;;;;;5026826;28;20041;-34
2023/05/15 10:45:04;;;;;;;11.48;7.75;;;17.60;99.90;;;;;;5025445;28;20049;-34
2023/05/15 10:47:30;;;;;;;10.93;6.50;;;17.60;99.90;;;;;;5034004;28;20095;-34
2023/05/15 10:49:57;;;;;;;11.35;6.43;;;17.70;99.90;;;;;;5011612;28;20041;-34
2023/05/15 10:52:23;;;;;;;9.55;6.45;;;17.70;99.90;;;;;;5021782;28;20065;-34
2023/05/15 10:54:51;;;;;;;9.30;6.35;;;17.80;99.90;;;;;;5035803;28;20049;-35
2023/05/15 10:57:19;;;;;;;9.00;5.85;;;17.90;99.90;;;;;;5028923;28;20065;-34
2023/05/15 10:59:45;;;;;;;9.43;6.25;;;18.00;99.90;;;;;;5013318;28;20056;-34
2023/05/15 11:02:25;;;;;;;11.85;5.65;;;17.90;99.90;;;;;;5017091;28;20053;-34
2023/05/15 11:05:02;;;;;;;10.50;6.07;;;17.90;99.90;;;;;;5024387;28;20058;-34
2023/05/15 11:07:28;;;;;;;8.40;5.25;;;18.00;99.90;;;;;;5019096;28;20056;-34
2023/05/15 11:09:54;;;;;;;9.43;5.45;;;18.10;99.90;;;;;;5031271;28;20084;-34
2023/05/15 11:12:21;;;;;;;8.07;5.57;;;18.10;99.90;;;;;;5034398;28;20079;-34
2023/05/15 11:14:55;;;;;;;7.18;5.60;;;18.10;99.90;;;;;;5036741;28;20060;-34
2023/05/15 11:17:25;;;;;;;7.57;4.93;;;18.20;99.90;;;;;;5027025;28;20422;-39
2023/05/15 11:19:50;;;;;;;8.27;5.13;;;18.30;99.90;;;;;;5030878;28;20061;-34
2023/05/15 11:22:20;;;;;;;6.90;5.05;;;18.60;99.90;;;;;;5030373;28;20411;-35
2023/05/15 11:25:04;;;;;;;7.60;5.03;;;18.50;99.90;;;;;;5028920;28;20518;-35
2023/05/15 11:27:41;;;;;;;6.50;4.85;;;18.70;99.90;;;;;;5033318;28;20147;-36
2023/05/15 11:30:23;;;;;;;8.20;4.65;;;18.90;99.90;;;;;;5039712;28;20087;-35
2023/05/15 11:32:52;;;;;;;7.68;5.32;;;18.90;99.90;;;;;;5033649;28;20077;-35
2023/05/15 11:35:28;;;;;;;8.48;6.00;;;19.00;99.90;;;;;;5039087;28;20092;-35
2023/05/15 11:38:09;;;;;;;9.05;6.63;;;19.00;99.90;;;;;;5035894;28;20454;-36
2023/05/15 11:40:50;;;;;;;10.70;4.85;;;18.90;99.90;;;;;;5039510;28;20433;-36
2023/05/15 11:43:23;;;;;;;10.07;7.07;;;19.00;99.90;;;;;;5025775;28;20045;-35
2023/05/15 11:45:54;;;;;;;11.55;6.95;;;19.00;99.90;;;;;;5028797;28;20161;-36
2023/05/15 11:48:21;;;;;;;8.93;6.68;;;18.90;99.90;;;;;;5028985;28;20102;-35
2023/05/15 11:50:48;;;;;;;9.80;7.28;;;18.80;99.90;;;;;;5027340;28;20136;-36
2023/05/15 11:53:14;;;;;;;8.82;6.57;;;18.60;99.90;;;;;;5026862;28;20329;-36
2023/05/15 11:55:42;;;;;;;12.48;7.03;;;18.70;99.90;;;;;;5036645;28;20045;-36
2023/05/15 11:58:15;;;;;;;8.80;6.10;;;18.70;99.90;;;;;;5033323;28;20049;-36
2023/05/15 12:00:43;;;;;;;11.10;6.93;;;18.80;99.90;;;;;;5036963;28;20049;-36
2023/05/15 12:03:21;;;;;;;8.20;6.15;;;18.70;99.90;;;;;;5032645;28;20108;-36
2023/05/15 12:05:46;;;;;;;8.13;4.80;;;18.80;99.90;;;;;;5027751;28;20108;-35
2023/05/15 12:08:12;;;;;;;9.52;5.40;;;19.00;99.90;;;;;;5028935;28;20473;-35
2023/05/15 12:10:45;;;;;;;8.07;4.82;;;19.10;99.90;;;;;;5037596;28;20045;-35
2023/05/15 12:13:12;;;;;;;8.05;5.78;;;19.30;99.90;;;;;;5034654;28;20136;-35
2023/05/15 12:15:45;;;;;;;6.32;4.78;;;19.40;99.90;;;;;;5026788;28;20077;-35
2023/05/15 12:18:11;;;;;;;6.22;4.55;;;19.50;99.90;;;;;;5034168;28;20172;-35
2023/05/15 12:20:39;;;;;;;7.47;4.72;;;19.70;99.90;;;;;;5024454;28;20082;-36
2023/05/15 12:23:06;;;;;;;7.72;4.90;;;19.80;99.90;;;;;;5035791;28;20045;-35
2023/05/15 12:25:33;;;;;;;8.90;4.95;;;20.00;99.90;;;;;;5040062;28;20106;-36
2023/05/15 12:28:00;;;;;;;7.65;4.80;;;20.20;99.90;;;;;;5027451;28;20487;-35
2023/05/15 12:30:27;;;;;;;6.93;5.22;;;20.30;99.90;;;;;;5030273;28;20053;-35
2023/05/15 12:32:53;;;;;;;6.45;4.97;;;20.50;99.90;;;;;;5034974;28;20049;-35
2023/05/15 12:35:18;;;;;;;9.32;5.47;;;20.50;99.90;;;;;;5030492;28;20056;-35
2023/05/15 12:37:44;;;;;;;13.07;6.43;;;20.70;99.90;;;;;;5024846;28;20049;-36